createdAt,value
2017-07-14T00:01:56.247Z,48.87
2017-07-14T00:04:23.823Z,83.03
2017-07-14T00:06:51.363Z,51.80
2017-07-14T00:09:18.951Z,56.77
2017-07-14T00:11:46.523Z,54.43
2017-07-14T00:14:14.183Z,35.27
2017-07-14T00:16:41.738Z,33.00
2017-07-14T00:19:09.286Z,33.53
2017-07-14T00:21:36.855Z,32.83
2017-07-14T00:24:04.418Z,26.63
2017-07-14T00:26:31.951Z,22.90
2017-07-14T00:28:59.492Z,27.30
2017-07-14T00:31:27.099Z,22.57
2017-07-14T00:33:54.645Z,20.53
2017-07-14T00:36:22.311Z,20.90
2017-07-14T00:38:49.886Z,21.67
2017-07-14T00:41:17.443Z,19.80
2017-07-14T00:43:45.010Z,20.07
2017-07-14T00:46:12.567Z,15.73
2017-07-14T00:48:40.125Z,20.00
2017-07-14T00:51:07.658Z,15.67
2017-07-14T00:53:35.251Z,13.90
2017-07-14T00:56:02.812Z,12.93
2017-07-14T00:58:30.370Z,14.57
2017-07-14T01:00:57.927Z,15.00
2017-07-14T01:03:25.491Z,16.40
2017-07-14T01:05:53.055Z,11.53
2017-07-14T01:08:20.622Z,15.47
2017-07-14T01:10:48.158Z,11.40
2017-07-14T01:13:15.694Z,13.87
2017-07-14T01:15:43.295Z,12.73
2017-07-14T01:18:10.839Z,9.00
2017-07-14T01:20:38.414Z,12.90
2017-07-14T01:23:05.969Z,11.90
2017-07-14T01:25:33.534Z,13.60
2017-07-14T01:28:01.119Z,11.80
2017-07-14T01:30:28.675Z,11.57
2017-07-14T01:32:56.232Z,10.67
2017-07-14T01:35:23.815Z,10.17
2017-07-14T01:37:51.417Z,12.20
2017-07-14T01:40:18.982Z,7.87
2017-07-14T01:42:46.546Z,7.60
2017-07-14T01:45:14.106Z,11.17
2017-07-14T01:47:41.717Z,11.00
2017-07-14T01:50:10.116Z,10.30
2017-07-14T01:52:38.475Z,8.50
2017-07-14T01:55:06.135Z,9.47
2017-07-14T01:57:33.699Z,8.67
2017-07-14T02:00:01.335Z,8.03
2017-07-14T02:02:28.979Z,10.97
2017-07-14T02:04:56.560Z,10.07
2017-07-14T02:07:24.166Z,10.23
2017-07-14T02:09:51.720Z,11.97
2017-07-14T02:12:20.109Z,13.47
2017-07-14T02:14:48.461Z,17.40
2017-07-14T02:17:16.031Z,11.53
2017-07-14T02:19:43.567Z,14.23
2017-07-14T02:22:11.141Z,10.70
2017-07-14T02:24:38.703Z,18.03
2017-07-14T02:27:06.267Z,10.77
2017-07-14T02:29:33.832Z,14.13
2017-07-14T02:32:01.490Z,14.73
2017-07-14T02:34:29.075Z,10.67
2017-07-14T02:36:57.415Z,10.20
2017-07-14T02:39:25.012Z,11.27
2017-07-14T02:41:53.356Z,10.83
2017-07-14T02:44:20.953Z,7.97
2017-07-14T02:46:49.308Z,10.10
2017-07-14T02:49:16.906Z,8.67
2017-07-14T02:51:45.282Z,9.63
2017-07-14T02:54:13.611Z,13.50
2017-07-14T02:56:41.193Z,10.03
2017-07-14T02:59:08.784Z,6.60
2017-07-14T03:01:37.199Z,10.07
2017-07-14T03:04:05.029Z,10.77
2017-07-14T03:06:33.424Z,6.70
2017-07-14T03:09:01.075Z,7.97
2017-07-14T03:11:29.427Z,11.43
2017-07-14T03:13:57.016Z,10.27
2017-07-14T03:16:25.359Z,8.77
2017-07-14T03:18:52.987Z,10.93
2017-07-14T03:21:20.536Z,14.50
2017-07-14T03:23:48.123Z,7.33
2017-07-14T03:26:15.716Z,4.67
2017-07-14T03:28:43.407Z,5.40
2017-07-14T03:31:11.750Z,21.20
2017-07-14T03:33:39.331Z,6.83
2017-07-14T03:36:06.891Z,6.13
2017-07-14T03:38:34.522Z,15.20
2017-07-14T03:41:02.099Z,10.87
2017-07-14T03:43:29.703Z,9.23
2017-07-14T03:45:57.363Z,7.30
2017-07-14T03:48:24.944Z,4.87
2017-07-14T03:50:52.554Z,4.93
2017-07-14T03:53:20.098Z,6.73
2017-07-14T03:55:47.737Z,7.43
2017-07-14T03:58:15.363Z,6.10
2017-07-14T04:00:43.726Z,10.63
2017-07-14T04:03:11.315Z,5.97
2017-07-14T04:05:38.903Z,5.37
2017-07-14T04:08:06.504Z,6.67
2017-07-14T04:10:34.044Z,4.57
2017-07-14T04:13:01.631Z,55.97
2017-07-14T04:15:29.311Z,12.87
2017-07-14T04:17:57.630Z,5.30
2017-07-14T04:20:25.248Z,12.93
2017-07-14T04:22:53.736Z,18.93
2017-07-14T04:25:22.095Z,6.93
2017-07-14T04:27:49.732Z,12.03
2017-07-14T04:30:17.314Z,8.43
2017-07-14T04:32:44.875Z,6.50
2017-07-14T04:35:12.519Z,5.40
2017-07-14T04:37:40.103Z,19.70
2017-07-14T04:40:07.673Z,4.70
2017-07-14T04:42:36.023Z,4.20
2017-07-14T04:45:03.624Z,5.33
2017-07-14T04:47:32.009Z,9.47
2017-07-14T04:50:00.359Z,10.10
2017-07-14T04:52:27.944Z,9.23
2017-07-14T04:54:56.325Z,6.77
2017-07-14T04:57:24.653Z,4.13
2017-07-14T04:59:52.226Z,10.40
2017-07-14T05:02:19.826Z,4.47
2017-07-14T05:04:48.175Z,6.40
2017-07-14T05:07:15.733Z,5.90
2017-07-14T05:09:43.327Z,9.10
2017-07-14T05:12:11.649Z,5.63
2017-07-14T05:14:39.211Z,11.40
2017-07-14T05:17:06.761Z,6.40
2017-07-14T05:19:34.446Z,7.33
2017-07-14T05:22:01.986Z,11.20
2017-07-14T05:24:29.560Z,9.20
2017-07-14T05:26:57.098Z,10.07
2017-07-14T05:29:24.632Z,8.00
2017-07-14T05:31:53.052Z,8.93
2017-07-14T05:34:20.596Z,5.43
2017-07-14T05:36:48.183Z,6.37
2017-07-14T05:39:15.718Z,6.33
2017-07-14T05:41:43.315Z,8.03
2017-07-14T05:44:10.852Z,5.33
2017-07-14T05:46:38.394Z,7.40
2017-07-14T05:49:05.922Z,5.47
2017-07-14T05:51:33.546Z,9.57
2017-07-14T05:54:01.085Z,8.60
2017-07-14T05:56:28.666Z,3.93
2017-07-14T05:58:56.235Z,5.17
2017-07-14T06:01:23.768Z,5.90
2017-07-14T06:03:51.355Z,5.77
2017-07-14T06:06:18.914Z,10.17
2017-07-14T06:08:46.446Z,10.40
2017-07-14T06:11:14.035Z,3.93
2017-07-14T06:13:41.565Z,6.00
2017-07-14T06:16:09.155Z,4.70
2017-07-14T06:18:36.710Z,6.00
2017-07-14T06:21:04.247Z,7.80
2017-07-14T06:23:31.785Z,8.60
2017-07-14T06:26:00.090Z,12.57
2017-07-14T06:28:27.627Z,7.10
2017-07-14T06:30:55.927Z,3.30
2017-07-14T06:33:23.520Z,5.13
2017-07-14T06:35:51.143Z,3.97
2017-07-14T06:38:18.679Z,6.77
2017-07-14T06:40:47.126Z,6.20
2017-07-14T06:43:14.770Z,4.03
2017-07-14T06:45:42.342Z,4.00
2017-07-14T06:48:09.897Z,4.53
2017-07-14T06:50:37.570Z,8.67
2017-07-14T06:53:05.131Z,8.20
2017-07-14T06:55:32.662Z,4.07
2017-07-14T06:58:00.249Z,3.97
2017-07-14T07:00:27.810Z,7.27
2017-07-14T07:02:55.358Z,6.13
2017-07-14T07:05:22.882Z,3.87
2017-07-14T07:07:51.215Z,6.03
2017-07-14T07:10:18.748Z,6.03
2017-07-14T07:12:46.279Z,4.50
2017-07-14T07:15:14.615Z,4.17
2017-07-14T07:17:42.278Z,12.73
2017-07-14T07:20:09.842Z,6.90
2017-07-14T07:22:37.369Z,8.70
2017-07-14T07:25:04.950Z,5.77
2017-07-14T07:27:32.515Z,7.00
2017-07-14T07:30:00.054Z,4.43
2017-07-14T07:32:27.591Z,4.93
2017-07-14T07:34:55.895Z,8.20
2017-07-14T07:37:23.476Z,5.53
2017-07-14T07:39:51.037Z,3.97
2017-07-14T07:42:18.611Z,6.80
2017-07-14T07:44:46.162Z,11.90
2017-07-14T07:47:19.458Z,5.30
2017-07-14T07:52:40.795Z,5.87
2017-07-14T07:55:08.368Z,3.70
2017-07-14T07:57:35.926Z,5.37
2017-07-14T08:00:03.475Z,4.93
2017-07-14T08:02:36.935Z,3.63
2017-07-14T08:05:04.469Z,4.13
2017-07-14T08:07:32.914Z,5.63
2017-07-14T08:10:00.543Z,5.00
2017-07-14T08:12:28.140Z,4.33
2017-07-14T08:14:55.703Z,5.67
2017-07-14T08:17:23.363Z,4.80
2017-07-14T08:19:50.907Z,8.50
2017-07-14T08:22:18.470Z,6.13
2017-07-14T08:24:46.011Z,4.07
2017-07-14T08:27:13.613Z,5.90
2017-07-14T08:29:41.167Z,3.40
2017-07-14T08:32:08.830Z,4.00
2017-07-14T08:34:36.391Z,5.37
2017-07-14T08:37:03.952Z,3.97
2017-07-14T08:39:31.514Z,3.90
2017-07-14T08:41:59.171Z,2.77
2017-07-14T08:44:26.734Z,3.07
2017-07-14T08:46:54.395Z,6.23
2017-07-14T08:49:21.956Z,5.00
2017-07-14T08:51:49.494Z,3.70
2017-07-14T08:54:17.031Z,5.00
2017-07-14T08:56:45.363Z,6.03
2017-07-14T08:59:12.927Z,5.13
2017-07-14T09:01:40.469Z,3.10
2017-07-14T09:04:08.007Z,2.77
2017-07-14T09:06:35.570Z,4.17
2017-07-14T09:09:03.163Z,4.37
2017-07-14T09:11:30.730Z,4.90
2017-07-14T09:13:58.382Z,5.80
2017-07-14T09:16:25.946Z,5.43
2017-07-14T09:18:53.607Z,3.27
2017-07-14T09:21:21.167Z,4.60
2017-07-14T09:23:48.741Z,4.50
2017-07-14T09:26:16.279Z,2.57
2017-07-14T09:28:43.856Z,6.20
2017-07-14T09:31:11.409Z,4.60
2017-07-14T09:33:39.078Z,7.63
2017-07-14T09:36:06.642Z,5.53
2017-07-14T09:38:34.303Z,6.13
2017-07-14T09:41:01.863Z,9.33
2017-07-14T09:43:29.526Z,5.37
2017-07-14T09:45:57.176Z,6.40
2017-07-14T09:48:24.743Z,5.90
2017-07-14T09:50:52.315Z,5.47
2017-07-14T09:53:19.978Z,5.03
2017-07-14T09:55:47.624Z,3.93
2017-07-14T09:58:15.187Z,6.93
2017-07-14T10:00:42.719Z,4.60
2017-07-14T10:03:10.334Z,4.87
2017-07-14T10:05:37.984Z,3.90
2017-07-14T10:08:05.637Z,6.90
2017-07-14T10:10:33.206Z,4.00
2017-07-14T10:13:00.739Z,3.37
2017-07-14T10:15:28.326Z,6.43
2017-07-14T10:17:55.890Z,3.73
2017-07-14T10:20:23.451Z,6.43
2017-07-14T10:22:51.003Z,3.90
2017-07-14T10:25:18.568Z,8.63
2017-07-14T10:27:46.930Z,9.23
2017-07-14T10:30:14.507Z,6.37
2017-07-14T10:32:42.067Z,4.83
2017-07-14T10:35:09.731Z,6.87
2017-07-14T10:37:37.300Z,7.50
2017-07-14T10:40:04.963Z,4.47
2017-07-14T10:42:32.519Z,6.27
2017-07-14T10:45:00.186Z,4.50
2017-07-14T10:47:27.746Z,5.07
2017-07-14T10:49:55.274Z,5.00
2017-07-14T10:52:22.870Z,5.03
2017-07-14T10:54:50.431Z,5.67
2017-07-14T10:57:17.982Z,8.10
2017-07-14T10:59:45.520Z,10.40
2017-07-14T11:02:13.053Z,4.43
2017-07-14T11:04:41.363Z,4.87
2017-07-14T11:07:08.947Z,4.33
2017-07-14T11:09:36.709Z,5.17
2017-07-14T11:12:04.275Z,6.37
2017-07-14T11:14:31.816Z,4.30
2017-07-14T11:16:59.409Z,7.57
2017-07-14T11:19:27.054Z,6.40
2017-07-14T11:21:54.587Z,4.63
2017-07-14T11:24:22.122Z,6.83
2017-07-14T11:26:50.455Z,7.03
2017-07-14T11:29:18.097Z,6.03
2017-07-14T11:31:45.684Z,6.43
2017-07-14T11:34:13.350Z,8.37
2017-07-14T11:36:40.903Z,6.90
2017-07-14T11:39:08.575Z,4.23
2017-07-14T11:41:36.121Z,4.63
2017-07-14T11:44:03.691Z,8.90
2017-07-14T11:46:31.231Z,12.73
2017-07-14T11:48:58.839Z,4.10
2017-07-14T11:51:26.483Z,6.60
2017-07-14T11:53:54.040Z,6.80
2017-07-14T11:56:21.600Z,7.43
2017-07-14T11:58:49.135Z,4.47
2017-07-14T12:01:16.727Z,4.10
2017-07-14T12:03:44.279Z,7.27
2017-07-14T12:06:11.842Z,6.57
2017-07-14T12:08:39.372Z,5.23
2017-07-14T12:11:06.906Z,4.40
2017-07-14T12:13:35.235Z,4.70
2017-07-14T12:16:02.795Z,3.80
2017-07-14T12:18:30.367Z,5.77
2017-07-14T12:20:57.926Z,4.60
2017-07-14T12:23:25.473Z,5.73
2017-07-14T12:25:53.047Z,4.93
2017-07-14T12:28:20.597Z,4.10
2017-07-14T12:30:48.160Z,7.97
2017-07-14T12:33:15.740Z,4.10
2017-07-14T12:35:43.291Z,5.73
2017-07-14T12:38:10.846Z,5.10
2017-07-14T12:40:38.385Z,6.50
2017-07-14T12:45:59.789Z,5.00
2017-07-14T12:48:28.093Z,6.57
2017-07-14T12:50:55.651Z,4.00
2017-07-14T12:53:23.247Z,4.73
2017-07-14T12:55:50.808Z,6.07
2017-07-14T12:58:18.348Z,4.80
2017-07-14T13:00:45.909Z,5.30
2017-07-14T13:03:13.490Z,4.30
2017-07-14T13:05:41.063Z,5.40
2017-07-14T13:08:08.599Z,6.40
2017-07-14T13:10:36.158Z,4.40
2017-07-14T13:13:03.734Z,4.93
2017-07-14T13:15:31.399Z,5.33
2017-07-14T13:17:58.934Z,4.47
2017-07-14T13:20:26.527Z,4.10
2017-07-14T13:22:54.083Z,3.93
2017-07-14T13:25:21.644Z,5.63
2017-07-14T13:27:49.200Z,5.63
2017-07-14T13:30:16.759Z,5.50
2017-07-14T13:32:44.323Z,6.63
2017-07-14T13:35:11.870Z,4.30
2017-07-14T13:37:39.408Z,4.03
2017-07-14T13:40:06.999Z,4.00
2017-07-14T13:42:34.538Z,3.50
2017-07-14T13:45:02.074Z,4.83
2017-07-14T13:47:30.379Z,5.17
2017-07-14T13:49:57.958Z,10.97
2017-07-14T13:52:25.526Z,3.73
2017-07-14T13:54:53.087Z,4.30
2017-07-14T13:57:20.622Z,4.73
2017-07-14T13:59:48.199Z,5.50
2017-07-14T14:02:15.807Z,4.13
2017-07-14T14:04:44.155Z,3.17
2017-07-14T14:07:11.723Z,3.60
2017-07-14T14:09:39.261Z,4.87
2017-07-14T14:12:06.937Z,4.10
2017-07-14T14:14:34.490Z,3.77
2017-07-14T14:17:02.157Z,3.47
2017-07-14T14:19:29.687Z,3.23
2017-07-14T14:21:57.246Z,5.60
2017-07-14T14:24:24.778Z,3.10
2017-07-14T14:26:53.224Z,4.97
2017-07-14T14:29:20.766Z,3.50
2017-07-14T14:31:48.342Z,6.27
2017-07-14T14:34:15.885Z,4.30
2017-07-14T14:36:43.554Z,4.47
2017-07-14T14:39:11.127Z,3.60
2017-07-14T14:41:38.687Z,5.60
2017-07-14T14:44:06.226Z,4.10
2017-07-14T14:46:33.809Z,6.90
2017-07-14T14:49:01.368Z,4.93
2017-07-14T14:51:29.032Z,4.20
2017-07-14T14:53:56.565Z,3.50
2017-07-14T14:56:24.124Z,4.77
2017-07-14T14:58:51.674Z,6.43
2017-07-14T15:01:19.271Z,7.97
2017-07-14T15:03:46.808Z,3.43
2017-07-14T15:06:14.387Z,6.00
2017-07-14T15:08:41.922Z,6.63
2017-07-14T15:11:09.456Z,4.93
2017-07-14T15:13:37.795Z,3.53
2017-07-14T15:16:05.449Z,4.10
2017-07-14T15:18:33.020Z,6.40
2017-07-14T15:21:00.579Z,4.93
2017-07-14T15:23:28.141Z,5.20
2017-07-14T15:25:55.671Z,3.90
2017-07-14T15:28:23.264Z,4.23
2017-07-14T15:30:50.823Z,4.73
2017-07-14T15:39:04.714Z,4.47
2017-07-14T15:41:32.363Z,6.67
2017-07-14T15:43:59.899Z,4.77
2017-07-14T15:46:27.445Z,5.40
2017-07-14T15:48:55.055Z,6.00
2017-07-14T15:51:22.612Z,5.33
2017-07-14T15:53:50.142Z,6.33
2017-07-14T15:56:17.735Z,8.23
2017-07-14T15:58:45.298Z,5.80
2017-07-14T16:01:12.848Z,5.60
2017-07-14T16:03:40.424Z,7.23
2017-07-14T16:06:07.980Z,8.30
2017-07-14T16:08:35.517Z,6.63
2017-07-14T16:11:03.062Z,6.77
2017-07-14T16:13:30.606Z,6.40
2017-07-14T16:15:58.914Z,9.50
2017-07-14T16:18:26.498Z,9.07
2017-07-14T16:20:54.044Z,10.97
2017-07-14T16:23:21.633Z,9.17
2017-07-14T16:25:49.190Z,9.37
2017-07-14T16:28:16.742Z,10.50
2017-07-14T16:30:47.965Z,6.17
2017-07-14T16:33:15.570Z,6.40
2017-07-14T16:35:43.115Z,6.63
2017-07-14T16:38:10.767Z,5.60
2017-07-14T16:40:38.340Z,9.73
2017-07-14T16:43:05.991Z,5.80
2017-07-14T16:45:33.567Z,6.63
2017-07-14T16:48:01.219Z,11.03
2017-07-14T16:50:28.787Z,6.20
2017-07-14T16:52:56.468Z,8.27
2017-07-14T16:55:24.016Z,15.30
2017-07-14T17:03:38.599Z,7.80
2017-07-14T17:06:06.139Z,9.53
2017-07-14T17:08:33.706Z,7.63
2017-07-14T17:11:01.235Z,9.73
2017-07-14T17:13:29.566Z,11.27
2017-07-14T17:15:57.124Z,10.20
2017-07-14T17:18:24.788Z,10.67
2017-07-14T17:20:52.343Z,11.13
2017-07-14T17:23:19.906Z,7.70
2017-07-14T17:25:47.445Z,9.80
2017-07-14T17:28:15.031Z,9.97
2017-07-14T17:30:42.568Z,7.60
2017-07-14T17:33:10.151Z,8.70
2017-07-14T17:35:37.693Z,12.37
2017-07-14T17:38:05.276Z,5.50
2017-07-14T17:40:32.834Z,8.40
2017-07-14T17:43:00.398Z,7.57
2017-07-14T17:45:27.954Z,4.80
2017-07-14T17:47:55.518Z,4.60
2017-07-14T17:50:23.054Z,4.77
2017-07-14T17:52:50.624Z,8.37
2017-07-14T17:55:18.199Z,5.47
2017-07-14T17:57:45.744Z,5.27
2017-07-14T18:00:13.319Z,6.53
2017-07-14T18:02:40.851Z,6.90
2017-07-14T18:05:08.382Z,7.93
2017-07-14T18:07:36.762Z,5.63
2017-07-14T18:10:05.070Z,6.83
2017-07-14T18:12:32.611Z,5.43
2017-07-14T18:15:00.914Z,7.13
2017-07-14T18:17:28.459Z,5.00
2017-07-14T18:19:56.060Z,12.43
2017-07-14T18:22:23.619Z,8.00
2017-07-14T18:24:51.183Z,9.37
2017-07-14T18:27:18.746Z,7.80
2017-07-14T18:29:46.285Z,5.00
2017-07-14T18:32:13.918Z,7.03
2017-07-14T18:34:41.523Z,6.10
2017-07-14T18:37:09.287Z,5.10
2017-07-14T18:39:36.830Z,5.37
2017-07-14T18:42:04.372Z,4.83
2017-07-14T18:44:31.976Z,4.50
2017-07-14T18:46:59.530Z,5.00
2017-07-14T18:49:27.072Z,6.03
2017-07-14T18:51:54.658Z,5.63
2017-07-14T18:54:22.219Z,5.20
2017-07-14T18:56:49.778Z,5.20
2017-07-14T18:59:17.379Z,6.93
2017-07-14T19:01:45.688Z,5.20
2017-07-14T19:04:13.284Z,4.70
2017-07-14T19:06:40.847Z,6.43
2017-07-14T19:09:08.408Z,7.20
2017-07-14T19:11:35.963Z,4.93
2017-07-14T19:14:03.618Z,7.37
2017-07-14T19:16:31.187Z,13.87
2017-07-14T19:18:58.751Z,8.60
2017-07-14T19:21:26.300Z,4.83
2017-07-14T19:23:53.969Z,4.73
2017-07-14T19:26:21.535Z,4.50
2017-07-14T19:28:49.193Z,5.33
2017-07-14T19:31:16.755Z,4.53
2017-07-14T19:33:44.318Z,5.20
2017-07-14T19:36:11.887Z,4.73
2017-07-14T19:38:39.426Z,7.33
2017-07-14T19:41:06.963Z,4.77
2017-07-14T19:43:34.559Z,5.20
2017-07-14T19:46:02.086Z,8.67
2017-07-14T19:48:29.619Z,8.60
2017-07-14T19:50:57.960Z,5.30
2017-07-14T19:53:25.499Z,7.93
2017-07-14T19:55:53.034Z,7.07
2017-07-14T19:58:21.358Z,7.43
2017-07-14T20:00:48.918Z,6.17
2017-07-14T20:03:16.482Z,6.20
2017-07-14T20:05:44.031Z,8.07
2017-07-14T20:08:11.572Z,6.37
2017-07-14T20:10:39.172Z,7.20
2017-07-14T20:13:06.712Z,7.10
2017-07-14T20:15:34.257Z,6.77
2017-07-14T20:18:01.854Z,6.97
2017-07-14T20:20:29.462Z,6.80
2017-07-14T20:22:57.811Z,9.27
2017-07-14T20:25:25.450Z,11.20
2017-07-14T20:27:53.000Z,7.97
2017-07-14T20:30:20.590Z,10.90
2017-07-14T20:32:48.183Z,10.90
2017-07-14T20:35:16.552Z,8.53
2017-07-14T20:37:44.923Z,8.03
2017-07-14T20:40:13.279Z,8.00
2017-07-14T20:42:40.839Z,9.97
2017-07-14T20:45:08.405Z,9.70
2017-07-14T20:47:35.983Z,8.93
2017-07-14T20:50:03.569Z,9.30
2017-07-14T20:52:31.957Z,9.93
2017-07-14T20:54:59.587Z,9.27
2017-07-14T20:57:27.171Z,9.93
2017-07-14T20:59:55.625Z,9.47
2017-07-14T21:02:23.207Z,21.20
2017-07-14T21:04:51.617Z,10.00
2017-07-14T21:07:19.162Z,9.97
2017-07-14T21:09:46.788Z,10.20
2017-07-14T21:12:14.435Z,14.07
2017-07-14T21:14:42.021Z,10.80
2017-07-14T21:17:09.587Z,22.40
2017-07-14T21:19:37.241Z,11.27
2017-07-14T21:22:04.861Z,12.40
2017-07-14T21:24:32.428Z,13.80
2017-07-14T21:27:00.012Z,12.20
2017-07-14T21:29:27.559Z,12.37
2017-07-14T21:31:55.151Z,14.90
2017-07-14T21:34:22.826Z,27.17
2017-07-14T21:36:51.163Z,26.27
2017-07-14T21:39:18.718Z,15.97
2017-07-14T21:41:46.282Z,14.43
2017-07-14T21:44:13.845Z,9.33
2017-07-14T21:46:41.386Z,10.17
2017-07-14T21:49:08.969Z,11.00
2017-07-14T21:51:36.627Z,11.27
2017-07-14T21:54:04.202Z,10.30
2017-07-14T21:56:31.854Z,10.30
2017-07-14T21:58:59.394Z,12.10
2017-07-14T22:01:26.961Z,9.20
2017-07-14T22:03:54.538Z,8.27
2017-07-14T22:06:22.184Z,9.83
2017-07-14T22:08:49.719Z,8.73
2017-07-14T22:11:18.139Z,9.63
2017-07-14T22:13:45.698Z,10.80
2017-07-14T22:16:13.361Z,9.60
2017-07-14T22:18:40.923Z,9.63
2017-07-14T22:21:08.587Z,11.83
2017-07-14T22:23:36.154Z,9.80
2017-07-14T22:26:03.818Z,8.13
2017-07-14T22:28:31.378Z,8.37
2017-07-14T22:30:58.938Z,8.03
2017-07-14T22:33:27.487Z,10.90
2017-07-14T22:35:55.075Z,11.23
2017-07-14T22:38:22.643Z,7.97
2017-07-14T22:40:50.303Z,17.60
2017-07-14T22:43:17.865Z,7.33
2017-07-14T22:45:45.423Z,6.40
2017-07-14T22:48:12.960Z,15.50
2017-07-14T22:50:40.550Z,6.17
2017-07-14T22:53:08.108Z,6.50
2017-07-14T22:55:35.672Z,8.10
2017-07-14T22:58:03.205Z,6.07
2017-07-14T23:00:30.798Z,5.97
2017-07-14T23:02:58.355Z,9.30
2017-07-14T23:05:25.882Z,9.70
2017-07-14T23:07:53.439Z,6.00
2017-07-14T23:10:21.031Z,7.93
2017-07-14T23:12:48.591Z,10.43
2017-07-14T23:15:16.134Z,14.67
2017-07-14T23:17:43.692Z,6.13
2017-07-14T23:20:11.269Z,8.20
2017-07-14T23:22:38.926Z,8.83
2017-07-14T23:25:06.497Z,7.50
2017-07-14T23:27:34.057Z,6.87
2017-07-14T23:30:01.586Z,5.67
2017-07-14T23:32:29.184Z,8.83
2017-07-14T23:34:56.746Z,8.47
2017-07-14T23:37:24.403Z,9.87
2017-07-14T23:39:51.971Z,5.03
2017-07-14T23:42:19.642Z,5.47
2017-07-14T23:44:47.201Z,5.53
2017-07-14T23:47:14.854Z,4.60
2017-07-14T23:49:42.382Z,9.93
2017-07-14T23:52:09.975Z,7.10
2017-07-14T23:54:37.535Z,8.23
2017-07-14T23:57:05.203Z,7.13
2017-07-14T23:59:32.759Z,9.30
